Time;durP1;ratioP1;P1;durP2;ratioP2;P2;SDS_P1;SDS_P2;PMS_P1;PMS_P2;Temp;Humidity;BMP_temperature;BMP_pressure;BME280_temperature;BME280_humidity;BME280_pressure;Samples;Min_cycle;Max_cycle;Signal;HPM_P1;HPM_P2
2023/03/09 00:02:18;;;;;;;30.97;24.27;;;;;;;;;;5015469;28;20196;-84
2023/03/09 00:04:44;;;;;;;30.17;24.90;;;;;;;;;;5015264;28;20212;-83
2023/03/09 00:07:10;;;;;;;32.37;24.67;;;;;;;;;;5013336;28;20219;-83
2023/03/09 00:09:40;;;;;;;31.23;23.93;;;;;;;;;;4980077;28;20241;-83
2023/03/09 00:12:06;;;;;;;32.13;24.70;;;;;;;;;;4998971;28;20253;-83
2023/03/09 00:14:32;;;;;;;30.57;24.80;;;;;;;;;;5014958;28;20195;-83
2023/03/09 00:16:58;;;;;;;32.03;23.97;;;;;;;;;;5000476;28;20220;-84
2023/03/09 00:19:26;;;;;;;31.03;24.03;;;;;;;;;;4996381;28;20213;-84
2023/03/09 00:21:56;;;;;;;33.13;24.57;;;;;;;;;;5014837;28;20242;-84
2023/03/09 00:24:24;;;;;;;32.07;24.50;;;;;;;;;;5010521;28;20195;-84
2023/03/09 00:26:52;;;;;;;32.43;24.50;;;;;;;;;;5029271;28;20200;-83
2023/03/09 00:29:18;;;;;;;36.63;25.67;;;;;;;;;;5010867;28;20193;-83
2023/03/09 00:31:45;;;;;;;33.77;25.27;;;;;;;;;;5010416;28;20243;-84
2023/03/09 00:34:11;;;;;;;37.80;26.47;;;;;;;;;;5009755;28;20219;-83
2023/03/09 00:36:38;;;;;;;35.17;26.07;;;;;;;;;;5013061;28;20543;-84
2023/03/09 00:39:04;;;;;;;34.50;26.27;;;;;;;;;;5012251;28;20181;-84
2023/03/09 00:41:31;;;;;;;35.13;26.47;;;;;;;;;;4993339;28;20200;-83
2023/03/09 00:43:59;;;;;;;35.73;26.00;;;;;;;;;;5011561;28;20258;-84
2023/03/09 00:46:26;;;;;;;35.07;25.17;;;;;;;;;;5010747;28;20177;-84
2023/03/09 00:48:54;;;;;;;35.03;25.63;;;;;;;;;;5009377;28;20270;-83
2023/03/09 00:51:21;;;;;;;34.03;24.70;;;;;;;;;;4998057;28;20205;-84
2023/03/09 00:53:47;;;;;;;33.33;24.33;;;;;;;;;;5011538;28;20275;-82
2023/03/09 00:56:20;;;;;;;32.50;23.87;;;;;;;;;;5010962;28;20220;-82
2023/03/09 00:58:46;;;;;;;34.57;24.67;;;;;;;;;;5008315;28;20196;-82
2023/03/09 01:01:15;;;;;;;35.57;25.43;;;;;;;;;;4990264;28;20189;-83
2023/03/09 01:03:42;;;;;;;33.97;24.50;;;;;;;;;;5012165;28;20220;-83
2023/03/09 01:06:08;;;;;;;33.63;24.77;;;;;;;;;;5010433;28;20271;-82
2023/03/09 01:08:36;;;;;;;34.33;26.03;;;;;;;;;;5009687;28;20232;-82
2023/03/09 01:11:07;;;;;;;36.03;26.43;;;;;;;;;;5011397;28;20264;-82
2023/03/09 01:13:35;;;;;;;33.73;24.87;;;;;;;;;;5011323;28;20199;-83
2023/03/09 01:16:02;;;;;;;34.60;25.13;;;;;;;;;;5017747;28;20188;-82
2023/03/09 01:18:28;;;;;;;33.40;25.17;;;;;;;;;;5012274;28;20192;-82
2023/03/09 01:20:54;;;;;;;34.17;24.93;;;;;;;;;;5009069;28;20192;-82
2023/03/09 01:23:23;;;;;;;35.57;25.77;;;;;;;;;;5002293;28;20212;-82
2023/03/09 01:25:49;;;;;;;34.23;24.03;;;;;;;;;;5013454;28;20188;-82
2023/03/09 01:28:15;;;;;;;35.60;24.73;;;;;;;;;;5012659;28;20250;-82
2023/03/09 01:30:43;;;;;;;35.63;25.30;;;;;;;;;;4992868;28;20188;-82
2023/03/09 01:33:09;;;;;;;34.67;25.30;;;;;;;;;;5005678;28;20188;-82
2023/03/09 01:35:38;;;;;;;33.17;24.67;;;;;;;;;;5010453;28;20202;-82
2023/03/09 01:38:06;;;;;;;36.40;25.57;;;;;;;;;;5009289;28;20199;-82
2023/03/09 01:40:33;;;;;;;36.40;25.00;;;;;;;;;;5009914;28;20311;-83
2023/03/09 01:43:20;;;;;;;35.07;24.27;;;;;;;;;;5009255;28;20188;-82
2023/03/09 01:45:49;;;;;;;32.30;24.03;;;;;;;;;;5013655;28;20181;-83
2023/03/09 01:48:15;;;;;;;33.77;24.17;;;;;;;;;;5012777;28;20262;-82
2023/03/09 01:50:41;;;;;;;34.40;25.00;;;;;;;;;;5008797;28;20176;-82
2023/03/09 01:53:11;;;;;;;33.03;24.47;;;;;;;;;;5009830;28;20184;-82
2023/03/09 01:55:38;;;;;;;34.20;24.87;;;;;;;;;;5017523;28;20189;-82
2023/03/09 01:58:10;;;;;;;35.20;25.33;;;;;;;;;;5017174;28;20177;-82
2023/03/09 02:00:40;;;;;;;33.20;24.03;;;;;;;;;;5008900;28;20208;-83
2023/03/09 02:03:09;;;;;;;33.47;24.77;;;;;;;;;;5011683;28;20189;-83
2023/03/09 02:05:39;;;;;;;34.43;24.80;;;;;;;;;;5007157;28;20224;-82
2023/03/09 02:08:06;;;;;;;30.97;24.03;;;;;;;;;;5008982;28;20211;-82
2023/03/09 02:10:34;;;;;;;34.33;25.13;;;;;;;;;;4992226;28;20186;-82
2023/03/09 02:13:11;;;;;;;34.13;25.40;;;;;;;;;;5006651;28;20188;-82
2023/03/09 02:15:37;;;;;;;37.23;25.87;;;;;;;;;;5029690;28;20187;-82
2023/03/09 02:18:03;;;;;;;36.50;26.10;;;;;;;;;;4999520;28;20276;-82
2023/03/09 02:20:34;;;;;;;36.00;25.10;;;;;;;;;;4992036;28;20228;-83
2023/03/09 02:23:03;;;;;;;35.10;25.30;;;;;;;;;;5011318;28;20186;-82
2023/03/09 02:25:31;;;;;;;35.37;24.80;;;;;;;;;;5014716;28;20250;-83
2023/03/09 02:27:59;;;;;;;37.67;26.73;;;;;;;;;;5006749;28;20213;-82
2023/03/09 02:30:27;;;;;;;36.47;25.70;;;;;;;;;;5007415;28;20271;-82
2023/03/09 02:33:02;;;;;;;37.57;27.03;;;;;;;;;;5011238;28;20247;-83
2023/03/09 02:35:31;;;;;;;39.43;26.83;;;;;;;;;;5010068;28;20180;-83
2023/03/09 02:37:57;;;;;;;37.47;26.27;;;;;;;;;;4994114;28;20192;-82
2023/03/09 02:40:28;;;;;;;39.10;27.47;;;;;;;;;;4996902;28;20189;-83
2023/03/09 02:42:54;;;;;;;37.47;25.70;;;;;;;;;;5028437;28;20188;-83
2023/03/09 02:45:21;;;;;;;36.73;26.00;;;;;;;;;;5009441;28;20196;-83
2023/03/09 02:47:50;;;;;;;41.70;27.70;;;;;;;;;;5008000;28;20228;-83
2023/03/09 02:50:16;;;;;;;35.50;24.87;;;;;;;;;;5007335;28;20179;-82
2023/03/09 02:52:42;;;;;;;38.90;26.57;;;;;;;;;;5012198;28;20207;-82
2023/03/09 02:55:09;;;;;;;37.17;25.50;;;;;;;;;;5007185;28;20172;-82
2023/03/09 02:57:35;;;;;;;37.97;27.03;;;;;;;;;;5006977;28;20196;-82
2023/03/09 03:00:01;;;;;;;39.90;26.77;;;;;;;;;;4995604;28;20193;-82
2023/03/09 03:02:27;;;;;;;41.43;26.63;;;;;;;;;;5010665;28;20216;-82
2023/03/09 03:04:54;;;;;;;36.77;25.73;;;;;;;;;;5004856;28;20189;-82
2023/03/09 03:07:21;;;;;;;37.00;25.90;;;;;;;;;;5015578;28;20212;-82
2023/03/09 03:09:47;;;;;;;36.10;25.40;;;;;;;;;;5014709;28;20234;-82
2023/03/09 03:12:13;;;;;;;35.80;24.87;;;;;;;;;;5013030;28;20193;-82
2023/03/09 03:14:39;;;;;;;35.27;25.43;;;;;;;;;;5015030;28;20207;-82
2023/03/09 03:17:05;;;;;;;36.60;24.57;;;;;;;;;;5015269;28;20243;-82
2023/03/09 03:19:32;;;;;;;33.67;24.90;;;;;;;;;;5015811;28;20184;-82
2023/03/09 03:21:58;;;;;;;35.13;25.47;;;;;;;;;;5015385;28;20214;-82
2023/03/09 03:24:24;;;;;;;35.57;24.67;;;;;;;;;;5015603;28;20246;-82
2023/03/09 03:26:53;;;;;;;34.13;24.27;;;;;;;;;;5016318;28;20176;-82
2023/03/09 03:29:19;;;;;;;34.37;24.00;;;;;;;;;;5015780;28;20188;-82
2023/03/09 03:31:45;;;;;;;34.37;25.00;;;;;;;;;;5025812;28;20216;-82
2023/03/09 03:34:11;;;;;;;34.63;24.93;;;;;;;;;;5008843;28;20188;-82
2023/03/09 03:36:39;;;;;;;32.87;23.77;;;;;;;;;;5004274;28;20187;-82
2023/03/09 03:39:05;;;;;;;31.83;23.87;;;;;;;;;;5014006;28;20188;-82
2023/03/09 03:41:32;;;;;;;34.63;25.10;;;;;;;;;;5000193;28;20246;-83
2023/03/09 03:43:58;;;;;;;33.17;24.27;;;;;;;;;;4982816;28;20200;-82
2023/03/09 03:46:24;;;;;;;32.30;23.67;;;;;;;;;;5015152;28;20499;-83
2023/03/09 03:48:50;;;;;;;31.43;23.23;;;;;;;;;;4998245;28;20221;-82
2023/03/09 03:51:16;;;;;;;34.70;25.33;;;;;;;;;;5015750;28;20197;-82
2023/03/09 03:53:42;;;;;;;34.73;24.93;;;;;;;;;;4985236;28;20190;-82
2023/03/09 03:56:08;;;;;;;32.60;24.03;;;;;;;;;;5013744;28;20180;-82
2023/03/09 03:58:35;;;;;;;34.90;24.77;;;;;;;;;;5016098;28;20200;-82
2023/03/09 04:01:01;;;;;;;34.23;24.17;;;;;;;;;;4999658;28;20193;-82
2023/03/09 04:03:27;;;;;;;34.47;24.70;;;;;;;;;;4991592;28;20193;-82
2023/03/09 04:05:53;;;;;;;33.33;24.13;;;;;;;;;;5005352;28;20280;-82
2023/03/09 04:08:19;;;;;;;34.93;25.80;;;;;;;;;;5012641;28;20208;-82
2023/03/09 04:10:45;;;;;;;35.07;25.43;;;;;;;;;;5009607;28;20215;-82
2023/03/09 04:13:13;;;;;;;35.17;24.57;;;;;;;;;;5018671;28;20232;-82
2023/03/09 04:15:39;;;;;;;36.80;24.77;;;;;;;;;;4999080;28;20264;-82
2023/03/09 04:18:06;;;;;;;34.87;25.27;;;;;;;;;;5009617;28;20185;-82
2023/03/09 04:20:32;;;;;;;36.90;25.83;;;;;;;;;;5018241;28;20188;-82
2023/03/09 04:22:58;;;;;;;35.97;25.63;;;;;;;;;;5018132;28;20246;-82
2023/03/09 04:25:24;;;;;;;36.70;26.57;;;;;;;;;;5002986;28;20185;-82
2023/03/09 04:27:52;;;;;;;36.53;25.73;;;;;;;;;;5001171;28;20302;-82
2023/03/09 04:30:20;;;;;;;39.00;25.80;;;;;;;;;;5002412;28;20203;-82
2023/03/09 04:32:47;;;;;;;36.63;25.67;;;;;;;;;;5015805;28;20225;-82
2023/03/09 04:35:14;;;;;;;37.30;25.63;;;;;;;;;;4983591;28;20188;-82
2023/03/09 04:37:40;;;;;;;37.13;26.70;;;;;;;;;;5017698;28;20278;-81
2023/03/09 04:40:06;;;;;;;37.57;26.77;;;;;;;;;;5018520;28;20192;-82
2023/03/09 04:42:32;;;;;;;39.07;27.23;;;;;;;;;;5017513;28;20196;-82
2023/03/09 04:44:58;;;;;;;38.77;26.93;;;;;;;;;;5017379;28;20185;-82
2023/03/09 04:47:24;;;;;;;38.70;26.40;;;;;;;;;;5017691;28;20220;-82
2023/03/09 04:49:50;;;;;;;38.00;27.63;;;;;;;;;;5000595;28;20192;-82
2023/03/09 04:52:16;;;;;;;39.80;27.10;;;;;;;;;;5018485;28;20218;-82
2023/03/09 04:54:43;;;;;;;36.97;26.03;;;;;;;;;;5016994;28;20250;-82
2023/03/09 04:57:09;;;;;;;37.93;26.80;;;;;;;;;;5018330;28;20180;-82
2023/03/09 04:59:35;;;;;;;38.17;26.77;;;;;;;;;;4991760;28;20195;-82
2023/03/09 05:02:01;;;;;;;39.27;25.90;;;;;;;;;;5017714;28;20189;-82
2023/03/09 05:04:27;;;;;;;41.87;28.00;;;;;;;;;;5015414;28;20338;-82
2023/03/09 05:06:55;;;;;;;38.00;26.60;;;;;;;;;;5016536;28;20180;-82
2023/03/09 05:09:21;;;;;;;38.27;26.30;;;;;;;;;;5012838;28;20185;-82
2023/03/09 05:11:51;;;;;;;40.47;27.40;;;;;;;;;;4996600;28;20201;-82
2023/03/09 05:14:18;;;;;;;38.53;25.77;;;;;;;;;;5000841;28;20200;-82
2023/03/09 05:16:44;;;;;;;40.00;27.37;;;;;;;;;;5016988;28;20204;-82
2023/03/09 05:19:10;;;;;;;39.87;27.40;;;;;;;;;;5016431;28;20180;-81
2023/03/09 05:21:39;;;;;;;39.30;27.00;;;;;;;;;;5017255;28;20189;-82
2023/03/09 05:24:05;;;;;;;40.17;27.23;;;;;;;;;;5016406;28;20180;-82
2023/03/09 05:26:31;;;;;;;39.90;28.33;;;;;;;;;;5017061;28;20188;-82
2023/03/09 05:28:57;;;;;;;40.23;27.83;;;;;;;;;;5010884;28;20225;-82
2023/03/09 05:31:26;;;;;;;37.73;26.10;;;;;;;;;;4989553;28;20232;-82
2023/03/09 05:33:52;;;;;;;42.37;28.00;;;;;;;;;;5006724;28;20181;-81
2023/03/09 05:36:20;;;;;;;37.67;27.07;;;;;;;;;;5016111;28;20189;-81
2023/03/09 05:38:46;;;;;;;38.13;26.20;;;;;;;;;;5015736;28;20189;-82
2023/03/09 05:41:12;;;;;;;39.30;27.33;;;;;;;;;;5013744;28;20191;-81
2023/03/09 05:43:41;;;;;;;37.73;26.10;;;;;;;;;;5010447;28;20185;-81
2023/03/09 05:46:08;;;;;;;35.30;25.37;;;;;;;;;;5006180;28;20184;-82
2023/03/09 05:48:34;;;;;;;37.37;26.50;;;;;;;;;;5016588;28;20223;-82
2023/03/09 05:51:00;;;;;;;36.90;26.33;;;;;;;;;;5006744;28;20255;-82
2023/03/09 05:53:27;;;;;;;34.47;24.70;;;;;;;;;;4997458;28;20216;-82
2023/03/09 05:55:56;;;;;;;38.60;26.23;;;;;;;;;;4987491;28;20180;-82
2023/03/09 05:58:22;;;;;;;38.90;27.13;;;;;;;;;;4996100;28;20204;-82
2023/03/09 06:00:48;;;;;;;35.87;25.00;;;;;;;;;;4993814;28;20188;-82
2023/03/09 06:03:14;;;;;;;37.07;25.30;;;;;;;;;;4995982;28;20193;-81
2023/03/09 06:05:40;;;;;;;37.83;25.90;;;;;;;;;;5000619;28;20180;-82
2023/03/09 06:08:06;;;;;;;33.97;24.43;;;;;;;;;;5003841;28;20212;-82
2023/03/09 06:10:32;;;;;;;35.97;25.47;;;;;;;;;;4989474;28;20283;-82
2023/03/09 06:12:58;;;;;;;33.87;25.13;;;;;;;;;;5015603;28;20188;-81
2023/03/09 06:15:27;;;;;;;35.37;24.07;;;;;;;;;;5004583;28;20192;-82
2023/03/09 06:17:53;;;;;;;33.60;24.40;;;;;;;;;;5006759;28;20191;-82
2023/03/09 06:20:19;;;;;;;34.67;25.60;;;;;;;;;;5014346;28;20181;-82
2023/03/09 06:22:45;;;;;;;35.57;24.97;;;;;;;;;;5015038;28;20195;-82
2023/03/09 06:25:12;;;;;;;35.83;25.33;;;;;;;;;;5016179;28;20219;-82
2023/03/09 06:27:38;;;;;;;36.70;23.47;;;;;;;;;;5016011;28;20266;-81
2023/03/09 06:30:05;;;;;;;33.67;24.27;;;;;;;;;;5007893;28;20183;-81
2023/03/09 06:32:34;;;;;;;34.30;24.93;;;;;;;;;;5007962;28;20222;-81
2023/03/09 06:35:01;;;;;;;33.70;23.40;;;;;;;;;;4994103;28;20242;-81
2023/03/09 06:37:27;;;;;;;35.13;24.87;;;;;;;;;;4994310;28;20185;-82
2023/03/09 06:39:53;;;;;;;34.40;24.50;;;;;;;;;;4996832;28;20211;-81
2023/03/09 06:42:19;;;;;;;34.07;24.40;;;;;;;;;;4987100;28;20185;-81
2023/03/09 06:44:46;;;;;;;34.73;24.27;;;;;;;;;;4990228;28;20192;-81
2023/03/09 06:47:12;;;;;;;33.43;24.67;;;;;;;;;;4990836;28;20236;-81
2023/03/09 06:49:39;;;;;;;32.63;23.83;;;;;;;;;;5009485;28;20185;-81
2023/03/09 06:52:07;;;;;;;34.13;24.73;;;;;;;;;;5030593;28;20197;-81
2023/03/09 06:54:33;;;;;;;33.47;24.93;;;;;;;;;;4990488;28;20185;-81
2023/03/09 06:57:00;;;;;;;31.77;23.87;;;;;;;;;;4998545;28;20224;-80
2023/03/09 06:59:28;;;;;;;33.73;25.20;;;;;;;;;;5016276;28;20204;-81
2023/03/09 07:01:55;;;;;;;32.77;24.13;;;;;;;;;;5006632;28;20271;-81
2023/03/09 07:04:21;;;;;;;33.40;24.33;;;;;;;;;;5005436;28;20177;-81
2023/03/09 07:06:47;;;;;;;32.77;23.70;;;;;;;;;;5007768;28;20259;-81
2023/03/09 07:09:13;;;;;;;33.23;24.00;;;;;;;;;;4988755;28;20244;-81
2023/03/09 07:11:39;;;;;;;34.07;24.93;;;;;;;;;;4993684;28;20189;-81
2023/03/09 07:14:05;;;;;;;32.77;24.70;;;;;;;;;;5002922;28;20184;-81
2023/03/09 07:16:31;;;;;;;32.33;23.67;;;;;;;;;;5016203;28;20183;-81
2023/03/09 07:18:59;;;;;;;32.20;23.50;;;;;;;;;;5010460;28;20180;-81
2023/03/09 07:21:26;;;;;;;31.73;23.70;;;;;;;;;;4995726;28;20220;-81
2023/03/09 07:23:52;;;;;;;32.77;24.50;;;;;;;;;;5005650;28;20188;-81
2023/03/09 07:26:20;;;;;;;34.43;24.87;;;;;;;;;;4996608;28;20196;-81
2023/03/09 07:28:46;;;;;;;35.13;25.07;;;;;;;;;;5011279;28;20263;-81
2023/03/09 07:31:13;;;;;;;35.70;24.47;;;;;;;;;;5006892;28;20225;-81
2023/03/09 07:33:39;;;;;;;33.33;24.27;;;;;;;;;;4994019;28;20189;-81
2023/03/09 07:36:09;;;;;;;33.47;24.10;;;;;;;;;;5030534;28;20176;-81
2023/03/09 07:38:35;;;;;;;34.97;25.20;;;;;;;;;;5009779;28;20188;-82
2023/03/09 07:41:02;;;;;;;34.20;25.20;;;;;;;;;;5016922;28;20207;-82
2023/03/09 07:43:28;;;;;;;35.37;25.40;;;;;;;;;;4997507;28;20193;-82
2023/03/09 07:45:54;;;;;;;32.87;24.13;;;;;;;;;;5000040;28;20191;-82
2023/03/09 07:48:20;;;;;;;34.93;24.23;;;;;;;;;;5001311;28;20209;-81
2023/03/09 07:50:46;;;;;;;34.33;24.97;;;;;;;;;;4998897;28;20195;-82
2023/03/09 07:53:12;;;;;;;36.17;25.90;;;;;;;;;;5016466;28;20182;-82
2023/03/09 07:55:38;;;;;;;33.77;24.93;;;;;;;;;;4995881;28;20211;-82
2023/03/09 07:58:05;;;;;;;33.43;24.27;;;;;;;;;;5019864;28;20180;-81
2023/03/09 08:00:32;;;;;;;32.10;23.83;;;;;;;;;;5019674;28;20184;-82
2023/03/09 08:02:58;;;;;;;35.57;25.20;;;;;;;;;;5016087;28;20223;-81
2023/03/09 08:05:24;;;;;;;34.53;25.37;;;;;;;;;;5008725;28;20208;-81
2023/03/09 08:07:51;;;;;;;32.97;24.37;;;;;;;;;;5002148;28;20212;-81
2023/03/09 08:10:17;;;;;;;34.33;25.70;;;;;;;;;;5012859;28;20263;-81
2023/03/09 08:12:43;;;;;;;34.27;24.87;;;;;;;;;;5018302;28;20183;-82
2023/03/09 08:15:12;;;;;;;33.53;24.60;;;;;;;;;;5000089;28;20195;-85
2023/03/09 08:17:39;;;;;;;33.40;24.63;;;;;;;;;;5014652;28;20246;-84
2023/03/09 08:20:08;;;;;;;33.90;24.90;;;;;;;;;;5014704;28;20185;-83
2023/03/09 08:22:35;;;;;;;31.80;24.03;;;;;;;;;;5008191;28;20193;-84
2023/03/09 08:25:03;;;;;;;35.33;25.37;;;;;;;;;;5006894;28;20180;-83
2023/03/09 08:27:32;;;;;;;35.10;25.80;;;;;;;;;;5002945;28;20295;-84
2023/03/09 08:30:00;;;;;;;35.47;25.30;;;;;;;;;;5006376;28;20200;-84
2023/03/09 08:32:26;;;;;;;37.47;26.83;;;;;;;;;;5014573;28;20228;-83
2023/03/09 08:34:55;;;;;;;34.00;25.67;;;;;;;;;;4997342;28;20193;-83
2023/03/09 08:37:21;;;;;;;34.47;25.67;;;;;;;;;;5014544;28;20176;-84
2023/03/09 08:39:47;;;;;;;35.83;25.90;;;;;;;;;;5017361;28;20250;-82
2023/03/09 08:42:14;;;;;;;33.97;25.03;;;;;;;;;;5002500;28;20243;-84
2023/03/09 08:44:40;;;;;;;33.70;25.33;;;;;;;;;;5009582;28;20181;-84
2023/03/09 08:47:07;;;;;;;34.40;26.10;;;;;;;;;;5004651;28;20199;-83
2023/03/09 08:49:33;;;;;;;34.07;25.77;;;;;;;;;;5002291;28;20180;-83
2023/03/09 08:51:59;;;;;;;34.40;25.83;;;;;;;;;;5001152;28;20201;-84
2023/03/09 08:54:25;;;;;;;33.27;25.93;;;;;;;;;;5004443;28;20272;-84
2023/03/09 08:56:51;;;;;;;34.60;26.17;;;;;;;;;;4998093;28;20188;-84
2023/03/09 08:59:17;;;;;;;34.27;26.17;;;;;;;;;;4999433;28;20296;-84
2023/03/09 09:01:43;;;;;;;30.77;24.40;;;;;;;;;;5009766;28;20287;-84
2023/03/09 09:04:09;;;;;;;36.30;27.17;;;;;;;;;;4989365;28;20292;-84
2023/03/09 09:06:35;;;;;;;35.40;26.13;;;;;;;;;;5003250;28;20189;-85
2023/03/09 09:09:01;;;;;;;35.80;25.57;;;;;;;;;;4999152;28;20262;-84
2023/03/09 09:11:27;;;;;;;34.77;25.00;;;;;;;;;;5011083;28;20184;-85
2023/03/09 09:13:54;;;;;;;33.43;24.87;;;;;;;;;;5014124;28;20181;-84
2023/03/09 09:16:20;;;;;;;36.17;25.93;;;;;;;;;;5011286;28;20189;-84
2023/03/09 09:18:47;;;;;;;32.43;24.43;;;;;;;;;;5017347;28;20177;-84
2023/03/09 09:21:14;;;;;;;33.27;25.07;;;;;;;;;;5006505;28;20200;-89
2023/03/09 09:23:43;;;;;;;35.30;25.90;;;;;;;;;;5017644;28;20235;-89
2023/03/09 09:26:26;;;;;;;34.23;25.13;;;;;;;;;;5017434;28;20180;-84
2023/03/09 09:28:52;;;;;;;33.53;24.80;;;;;;;;;;5011832;28;20209;-84
2023/03/09 09:31:19;;;;;;;35.27;25.93;;;;;;;;;;5002716;28;20297;-85
2023/03/09 09:33:46;;;;;;;36.40;24.97;;;;;;;;;;5013540;28;20181;-84
2023/03/09 09:36:17;;;;;;;38.13;26.83;;;;;;;;;;4997988;28;20177;-84
2023/03/09 09:38:43;;;;;;;35.17;26.17;;;;;;;;;;5007979;28;20199;-85
2023/03/09 09:41:16;;;;;;;34.77;26.57;;;;;;;;;;5016814;28;20188;-85
2023/03/09 09:43:42;;;;;;;34.20;25.03;;;;;;;;;;5010592;28;20178;-84
2023/03/09 09:46:14;;;;;;;35.63;25.97;;;;;;;;;;5007671;28;20177;-85
2023/03/09 09:48:41;;;;;;;33.67;24.40;;;;;;;;;;5016011;28;20208;-84
2023/03/09 09:51:26;;;;;;;37.83;25.67;;;;;;;;;;5016063;28;20197;-84
2023/03/09 09:54:11;;;;;;;36.47;26.63;;;;;;;;;;5015531;28;20176;-84
2023/03/09 09:56:56;;;;;;;39.13;26.33;;;;;;;;;;4998523;28;20213;-85
2023/03/09 09:59:39;;;;;;;34.70;25.87;;;;;;;;;;5008233;28;20188;-85
2023/03/09 10:02:10;;;;;;;38.27;26.33;;;;;;;;;;5014593;28;20194;-87
2023/03/09 10:04:41;;;;;;;36.63;25.93;;;;;;;;;;5025473;28;20243;-85
2023/03/09 10:07:17;;;;;;;36.27;25.70;;;;;;;;;;5015478;28;20193;-85
2023/03/09 10:09:44;;;;;;;37.17;26.77;;;;;;;;;;5028424;28;20195;-85
2023/03/09 10:12:13;;;;;;;37.10;25.80;;;;;;;;;;5013734;28;20205;-84
2023/03/09 10:14:49;;;;;;;34.87;25.00;;;;;;;;;;5002959;28;20184;-85
2023/03/09 10:17:29;;;;;;;35.40;25.37;;;;;;;;;;5007601;28;20177;-85
2023/03/09 10:19:57;;;;;;;35.70;24.63;;;;;;;;;;5017726;28;20187;-85
2023/03/09 10:22:24;;;;;;;34.93;24.87;;;;;;;;;;5012230;28;20188;-85
2023/03/09 10:24:54;;;;;;;35.80;25.47;;;;;;;;;;5023746;28;20181;-85
2023/03/09 10:27:23;;;;;;;36.67;25.20;;;;;;;;;;5010408;28;20181;-85
2023/03/09 10:29:52;;;;;;;35.17;25.73;;;;;;;;;;5009120;28;20177;-84
2023/03/09 10:32:27;;;;;;;36.23;25.10;;;;;;;;;;5004057;28;20221;-85
2023/03/09 10:34:54;;;;;;;36.80;25.63;;;;;;;;;;5009848;28;20184;-85
2023/03/09 10:37:34;;;;;;;34.07;24.90;;;;;;;;;;5018396;28;20177;-85
2023/03/09 10:40:04;;;;;;;35.57;24.67;;;;;;;;;;5004769;28;20275;-85
2023/03/09 10:42:37;;;;;;;34.03;23.83;;;;;;;;;;5031746;28;20180;-85
2023/03/09 10:45:03;;;;;;;31.80;23.50;;;;;;;;;;5016342;28;20327;-83
2023/03/09 10:47:51;;;;;;;34.67;24.13;;;;;;;;;;5015852;28;20216;-83
2023/03/09 10:50:17;;;;;;;37.00;25.33;;;;;;;;;;5016862;28;20176;-83
2023/03/09 10:52:45;;;;;;;31.73;23.17;;;;;;;;;;5016184;28;20231;-83
2023/03/09 10:55:23;;;;;;;33.33;24.17;;;;;;;;;;5016555;28;20183;-83
2023/03/09 10:57:57;;;;;;;33.93;24.40;;;;;;;;;;5016704;28;20180;-85
2023/03/09 11:00:23;;;;;;;33.13;22.77;;;;;;;;;;5016338;28;20187;-84
2023/03/09 11:02:56;;;;;;;33.97;23.73;;;;;;;;;;5016477;28;20181;-85
2023/03/09 11:05:24;;;;;;;33.63;24.50;;;;;;;;;;5016234;28;20199;-85
2023/03/09 11:07:58;;;;;;;34.27;24.70;;;;;;;;;;5015938;28;20247;-85
2023/03/09 11:10:29;;;;;;;30.67;23.07;;;;;;;;;;5016411;28;20225;-85
2023/03/09 11:12:56;;;;;;;36.40;24.43;;;;;;;;;;5016332;28;20181;-84
2023/03/09 11:15:32;;;;;;;33.37;23.87;;;;;;;;;;5016114;28;20248;-85
2023/03/09 11:17:59;;;;;;;34.13;24.03;;;;;;;;;;5016108;28;20188;-84
2023/03/09 11:20:29;;;;;;;33.90;24.30;;;;;;;;;;5014983;28;20192;-84
2023/03/09 11:23:15;;;;;;;36.40;26.37;;;;;;;;;;5026621;28;20300;-84
2023/03/09 11:25:50;;;;;;;35.67;24.50;;;;;;;;;;5021082;28;20189;-85
2023/03/09 11:28:23;;;;;;;36.73;24.80;;;;;;;;;;5024005;28;20222;-85
2023/03/09 11:30:50;;;;;;;33.87;24.27;;;;;;;;;;5014569;28;20350;-84
2023/03/09 11:33:18;;;;;;;35.13;26.13;;;;;;;;;;5014750;28;20188;-86
2023/03/09 11:35:46;;;;;;;33.57;24.53;;;;;;;;;;5003855;28;20181;-89
2023/03/09 11:38:13;;;;;;;34.23;24.33;;;;;;;;;;5015670;28;20176;-87
2023/03/09 11:40:40;;;;;;;35.27;25.53;;;;;;;;;;5003516;28;20197;-87
2023/03/09 11:43:13;;;;;;;38.93;27.33;;;;;;;;;;5007568;28;20184;-87
2023/03/09 11:45:41;;;;;;;35.10;25.13;;;;;;;;;;5005752;28;20293;-88
2023/03/09 11:48:26;;;;;;;35.57;25.47;;;;;;;;;;5013057;28;20219;-87
2023/03/09 11:50:55;;;;;;;37.53;25.53;;;;;;;;;;5026797;28;20196;-88
2023/03/09 11:53:24;;;;;;;37.03;25.57;;;;;;;;;;5011861;28;20181;-88
2023/03/09 11:55:53;;;;;;;38.27;26.10;;;;;;;;;;5011894;28;20177;-88
2023/03/09 11:58:35;;;;;;;37.30;25.00;;;;;;;;;;5012864;28;20199;-88
2023/03/09 12:01:24;;;;;;;36.17;25.23;;;;;;;;;;5007803;28;20259;-89
2023/03/09 12:04:01;;;;;;;35.60;25.03;;;;;;;;;;5009242;28;20185;-88
2023/03/09 12:06:40;;;;;;;34.40;24.90;;;;;;;;;;5014468;28;20180;-89
2023/03/09 12:09:08;;;;;;;36.93;25.63;;;;;;;;;;5006199;28;20213;-89
2023/03/09 12:11:53;;;;;;;36.20;25.93;;;;;;;;;;5014670;28;20267;-87
2023/03/09 12:14:21;;;;;;;37.93;26.30;;;;;;;;;;5015952;28;20172;-86
2023/03/09 12:16:51;;;;;;;39.13;26.53;;;;;;;;;;5011043;28;20188;-86
2023/03/09 12:19:18;;;;;;;38.40;26.00;;;;;;;;;;5014451;28;20216;-83
2023/03/09 12:21:48;;;;;;;38.87;25.93;;;;;;;;;;5019964;28;20182;-85
2023/03/09 12:24:17;;;;;;;38.20;25.97;;;;;;;;;;5019017;28;20180;-86
2023/03/09 12:26:43;;;;;;;38.77;26.13;;;;;;;;;;5018674;28;20196;-86
2023/03/09 12:29:17;;;;;;;39.30;25.70;;;;;;;;;;5010288;28;20222;-86
2023/03/09 12:32:03;;;;;;;38.77;25.47;;;;;;;;;;5015443;28;20244;-86
2023/03/09 12:34:38;;;;;;;34.47;24.43;;;;;;;;;;4999229;28;20181;-85
2023/03/09 12:37:23;;;;;;;35.27;24.70;;;;;;;;;;4999818;28;20184;-85
2023/03/09 12:39:57;;;;;;;36.20;24.57;;;;;;;;;;5003056;28;20196;-85
2023/03/09 12:42:37;;;;;;;37.00;23.97;;;;;;;;;;4999705;28;20187;-84
2023/03/09 12:45:24;;;;;;;35.57;23.87;;;;;;;;;;5017705;28;20279;-84
2023/03/09 12:48:02;;;;;;;34.80;24.07;;;;;;;;;;5017431;28;20220;-84
2023/03/09 12:50:28;;;;;;;36.90;25.27;;;;;;;;;;5018841;28;20172;-84
2023/03/09 12:53:15;;;;;;;33.40;23.07;;;;;;;;;;5016860;28;20207;-85
2023/03/09 12:55:42;;;;;;;37.83;24.57;;;;;;;;;;5014540;28;20188;-84
2023/03/09 12:58:32;;;;;;;35.53;23.90;;;;;;;;;;5015894;28;20184;-84
2023/03/09 13:01:01;;;;;;;35.03;24.10;;;;;;;;;;4997556;28;20208;-83
2023/03/09 13:03:47;;;;;;;37.53;25.83;;;;;;;;;;4999307;28;20181;-84
2023/03/09 13:06:32;;;;;;;36.67;25.70;;;;;;;;;;4998819;28;20231;-85
2023/03/09 13:09:01;;;;;;;35.27;23.97;;;;;;;;;;5006563;28;20265;-85
2023/03/09 13:11:31;;;;;;;39.60;24.93;;;;;;;;;;5017561;28;20239;-84
2023/03/09 13:14:00;;;;;;;38.63;25.17;;;;;;;;;;5018659;28;20180;-84
2023/03/09 13:16:29;;;;;;;37.13;24.53;;;;;;;;;;5015384;28;20196;-85
2023/03/09 13:19:13;;;;;;;38.67;25.13;;;;;;;;;;5018337;28;20212;-84
2023/03/09 13:21:39;;;;;;;33.67;23.40;;;;;;;;;;5016695;28;20180;-85
2023/03/09 13:24:12;;;;;;;35.93;24.63;;;;;;;;;;5012881;28;20223;-86
2023/03/09 13:26:40;;;;;;;38.43;25.77;;;;;;;;;;5018251;28;20184;-85
2023/03/09 13:29:10;;;;;;;34.37;23.77;;;;;;;;;;5018056;28;20227;-85
2023/03/09 13:31:36;;;;;;;38.17;25.70;;;;;;;;;;5015784;28;20224;-84
2023/03/09 13:34:06;;;;;;;37.33;25.70;;;;;;;;;;5034820;28;20181;-85
2023/03/09 13:36:33;;;;;;;35.40;24.13;;;;;;;;;;5016373;28;20169;-85
2023/03/09 13:39:05;;;;;;;37.00;24.23;;;;;;;;;;4996706;28;20292;-85
2023/03/09 13:41:31;;;;;;;36.83;24.70;;;;;;;;;;5004883;28;20220;-85
2023/03/09 13:43:58;;;;;;;36.97;23.87;;;;;;;;;;4996992;28;20193;-86
2023/03/09 13:46:34;;;;;;;39.13;26.17;;;;;;;;;;5011501;28;20184;-85
2023/03/09 13:49:07;;;;;;;42.30;26.23;;;;;;;;;;5002567;28;20339;-85
2023/03/09 13:51:41;;;;;;;37.97;26.03;;;;;;;;;;5013009;28;20203;-85
2023/03/09 13:54:29;;;;;;;37.33;25.13;;;;;;;;;;5007212;28;20180;-85
2023/03/09 13:57:03;;;;;;;37.17;25.93;;;;;;;;;;5016521;28;20181;-85
2023/03/09 13:59:33;;;;;;;38.07;25.87;;;;;;;;;;5017634;28;20181;-83
2023/03/09 14:02:03;;;;;;;39.90;26.13;;;;;;;;;;5012439;28;20181;-84
2023/03/09 14:04:29;;;;;;;36.97;25.57;;;;;;;;;;5033857;28;20180;-84
2023/03/09 14:06:57;;;;;;;41.40;27.07;;;;;;;;;;5033700;28;20208;-84
2023/03/09 14:09:36;;;;;;;41.20;27.23;;;;;;;;;;5017294;28;20204;-83
2023/03/09 14:12:03;;;;;;;40.50;26.50;;;;;;;;;;5015367;28;20191;-85
2023/03/09 14:14:34;;;;;;;42.13;27.53;;;;;;;;;;5033249;28;20302;-85
2023/03/09 14:17:00;;;;;;;37.40;26.30;;;;;;;;;;5011774;28;20188;-85
2023/03/09 14:19:32;;;;;;;41.33;26.73;;;;;;;;;;5033163;28;20219;-85
2023/03/09 14:21:59;;;;;;;36.80;24.30;;;;;;;;;;5016274;28;20352;-85
2023/03/09 14:24:35;;;;;;;35.13;23.73;;;;;;;;;;5015679;28;20201;-85
2023/03/09 14:27:20;;;;;;;33.17;23.00;;;;;;;;;;5033018;28;20203;-85